Aviation Digital Data Service (ADDS)

Output produced by METARs form (0130 UTC 30 September 2016)
found at http://aviationweather.gov/adds/metars/
 
KILM 292320Z 3000/3024 15007KT P6SM VCSH SCT020 SCT080 BKN140 
     FM301000 17003KT 6SM BR VCSH BKN020 
     FM301500 16005KT P6SM BKN250 
     PROB30 3015/3018 P6SM -TSRA BKN050CB